Gila Bend Af Aux Information

FAA: GXF - ICAO: KGXF

Gila Bend Af Aux (Airport) Location

State Arizona
County Maricopa
City Gila Bend
Gila Bend Af Aux (Airport) is 3 miles south of Gila Bend, AZ.
Latitude 32-53-16.2500N
Longitude 112-43-10.5950W
Elevation 883ft

Gila Bend Af Aux METARs

METAR KGXF 191058Z AUTO 14004KT 9SM CLR 20/M06 A2982 RMK AO2 SLP086 T01991061 $
Altimeter 29.82"
Temperature 19.9°C (67.8°F)
Wind 140° at 4KT
Clouds Skies are clear.
Visibility 9.0mi
Time observed: 2022-05-19T10:58:00Z

Gila Bend Af Aux (Airport) Details

Status Operational
Activation July 1942
Ownership Military - Air Force
Usage Private
Chart PHOENIX
ATC on-site Yes
Beacon schedule sunset-sunrise
Beacon color clear green

Gila Bend Af Aux (Airport) Contacts

Owner USAF
Owner address LUKE AFB, GLENDALE, AZ 85301
Owner phone N/A
Manager DIRECTOR, 56 RMO
Manager address 7101 JERSTAD, LUKE AFB, AZ 85309-1647
Manager phone 623-856-5855

Gila Bend Af Aux Radio Frequencies

Gila Bend Af Aux (Airport) Radio Frequencies

UNICOM N/A
Common traffic advisory frequency (CTAF) N/A